| time (UTC) | temp F | wind direction | speed MPH | gust MPH | rain 1hr in | rain 24hr in | rain mn in | humidity % | barometer mb |
| 20260506204804 | 75 | 85 | 2.0 | 8.0 | 0.00 | 0.00 | 0.00 | 70 | 1012.1 |
| 20260506204302 | 76 | 327 | 0.0 | 1.0 | 0.00 | 0.00 | 0.00 | 72 | 1012.3 |
| 20260506203800 | 75 | 348 | 1.0 | 7.0 | 0.00 | 0.00 | 0.00 | 72 | 1012.4 |
| 20260506203257 | 75 | 51 | 1.0 | 5.0 | 0.00 | 0.00 | 0.00 | 72 | 1012.3 |
| 20260506202754 | 75 | 262 | 0.0 | 5.0 | 0.00 | 0.00 | 0.00 | 73 | 1012.2 |
| 20260506202251 | 74 | 286 | 2.0 | 7.0 | 0.00 | 0.00 | 0.00 | 74 | 1012.3 |
| 20260506201747 | 74 | 37 | 1.0 | 5.0 | 0.00 | 0.00 | 0.00 | 74 | 1012.1 |
| 20260506201244 | 74 | 351 | 1.0 | 6.0 | 0.00 | 0.00 | 0.00 | 74 | 1012.0 |
| 20260506200741 | 75 | 37 | 1.0 | 5.0 | 0.00 | 0.00 | 0.00 | 74 | 1011.8 |
| 20260506200237 | 77 | 36 | 3.0 | 6.0 | 0.00 | 0.00 | 0.00 | 73 | 1011.8 |
| 20260506195733 | 78 | 39 | 1.0 | 3.0 | 0.00 | 0.00 | 0.00 | 74 | 1011.8 |
| 20260506195230 | 78 | 337 | 0.0 | 3.0 | 0.00 | 0.00 | 0.00 | 74 | 1011.1 |
| 20260506194728 | 78 | 42 | 0.0 | 1.0 | 0.00 | 0.00 | 0.00 | 74 | 1011.4 |
| 20260506194224 | 77 | 85 | 3.0 | 6.0 | 0.00 | 0.00 | 0.00 | 74 | 1011.4 |
| 20260506193722 | 77 | 39 | 3.0 | 3.0 | 0.00 | 0.00 | 0.00 | 74 | 1011.6 |
| 20260506193218 | 78 | 353 | 1.0 | 3.0 | 0.00 | 0.00 | 0.00 | 74 | 1011.3 |
| 20260506192715 | 78 | 346 | 2.0 | 5.0 | 0.00 | 0.00 | 0.00 | 74 | 1011.5 |
| 20260506192212 | 79 | 71 | 1.0 | 5.0 | 0.00 | 0.00 | 0.00 | 73 | 1011.4 |
| 20260506191708 | 81 | 354 | 0.0 | 6.0 | 0.00 | 0.00 | 0.00 | 71 | 1011.6 |
| 20260506191204 | 80 | 286 | 1.0 | 2.0 | 0.00 | 0.00 | 0.00 | 72 | 1011.6 |
| 20260506190702 | 79 | 4 | 1.0 | 2.0 | 0.00 | 0.00 | 0.00 | 72 | 1011.6 |
| 20260506190158 | 78 | 5 | 0.0 | 1.0 | 0.00 | 0.00 | 0.00 | 74 | 1011.7 |
| 20260506185656 | 79 | 55 | 3.0 | 6.0 | 0.00 | 0.00 | 0.00 | 73 | 1011.8 |
| 20260506185152 | 79 | 314 | 0.0 | 1.0 | 0.00 | 0.00 | 0.00 | 74 | 1011.6 |
| 20260506184650 | 78 | 60 | 0.0 | 2.0 | 0.00 | 0.00 | 0.00 | 74 | 1011.6 |
| 20260506184147 | 78 | 55 | 3.0 | 7.0 | 0.00 | 0.00 | 0.00 | 73 | 1011.6 |
| 20260506183643 | 77 | 77 | 2.0 | 5.0 | 0.00 | 0.00 | 0.00 | 73 | 1011.7 |
| 20260506183139 | 78 | 77 | 3.0 | 3.0 | 0.00 | 0.00 | 0.00 | 74 | 1011.8 |
| 20260506182637 | 77 | 21 | 1.0 | 2.0 | 0.00 | 0.00 | 0.00 | 75 | 1011.9 |
| 20260506182134 | 75 | 188 | 1.0 | 3.0 | 0.00 | 0.00 | 0.00 | 77 | 1012.1 |
| 20260506181632 | 75 | 120 | 2.0 | 3.0 | 0.00 | 0.00 | 0.00 | 77 | 1011.8 |
| 20260506181129 | 74 | 46 | 3.0 | 3.0 | 0.00 | 0.00 | 0.00 | 78 | 1012.1 |
| 20260506180625 | 73 | 10 | 1.0 | 3.0 | 0.00 | 0.00 | 0.00 | 80 | 1011.7 |
| 20260506180122 | 73 | 24 | 2.0 | 3.0 | 0.00 | 0.00 | 0.00 | 81 | 1011.8 |
| 20260506175618 | 72 | 63 | 4.0 | 7.0 | 0.00 | 0.00 | 0.00 | 80 | 1012.0 |
| 20260506175114 | 71 | 63 | 0.0 | 1.0 | 0.00 | 0.00 | 0.00 | 82 | 1012.1 |
| 20260506174613 | 72 | 36 | 3.0 | 3.0 | 0.00 | 0.00 | 0.00 | 81 | 1012.0 |
| 20260506174109 | 71 | 66 | 7.0 | 10.0 | 0.00 | 0.00 | 0.00 | 81 | 1011.8 |
| 20260506173607 | 71 | 78 | 3.0 | 5.0 | 0.00 | 0.00 | 0.00 | 82 | 1011.9 |
| 20260506173103 | 70 | 94 | 3.0 | 3.0 | 0.00 | 0.00 | 0.00 | 82 | 1012.2 |
| 20260506172601 | 70 | 356 | 2.0 | 3.0 | 0.00 | 0.00 | 0.00 | 83 | 1012.2 |
| 20260506172057 | 70 | 11 | 2.0 | 2.0 | 0.00 | 0.00 | 0.00 | 83 | 1012.1 |
| 20260506171555 | 70 | 72 | 2.0 | 2.0 | 0.00 | 0.00 | 0.00 | 84 | 1012.0 |
| 20260506171052 | 70 | 92 | 2.0 | 5.0 | 0.00 | 0.00 | 0.00 | 85 | 1012.1 |
| 20260506170550 | 69 | 84 | 3.0 | 6.0 | 0.00 | 0.00 | 0.00 | 86 | 1012.1 |
| 20260506170047 | 69 | 3 | 5.0 | 7.0 | 0.00 | 0.00 | 0.00 | 87 | 1012.3 |
| 20260506165545 | 68 | 82 | 1.0 | 3.0 | 0.00 | 0.00 | 0.00 | 88 | 1012.5 |
| 20260506165041 | 68 | 8 | 3.0 | 6.0 | 0.00 | 0.00 | 0.00 | 88 | 1012.5 |
| 20260506164538 | 68 | 67 | 0.0 | 2.0 | 0.00 | 0.00 | 0.00 | 91 | 1012.2 |
| 20260506164036 | 67 | 38 | 3.0 | 3.0 | 0.00 | 0.00 | 0.00 | 91 | 1012.8 |
| 20260506163531 | 66 | 275 | 1.0 | 2.0 | 0.00 | 0.00 | 0.00 | 91 | 1013.0 |
| 20260506163027 | 67 | 327 | 1.0 | 2.0 | 0.00 | 0.00 | 0.00 | 91 | 1013.3 |
| 20260506162524 | 67 | 41 | 2.0 | 7.0 | 0.00 | 0.00 | 0.00 | 91 | 1013.2 |
| 20260506162021 | 68 | 298 | 2.0 | 5.0 | 0.00 | 0.00 | 0.00 | 91 | 1013.4 |
| 20260506161518 | 69 | 28 | 1.0 | 2.0 | 0.00 | 0.00 | 0.00 | 90 | 1013.2 |
| 20260506161015 | 69 | 47 | 2.0 | 3.0 | 0.00 | 0.00 | 0.00 | 89 | 1013.0 |
| 20260506160513 | 70 | 31 | 1.0 | 2.0 | 0.00 | 0.00 | 0.00 | 88 | 1012.9 |
| 20260506160011 | 72 | 351 | 5.0 | 10.0 | 0.00 | 0.00 | 0.00 | 87 | 1012.8 |
| 20260506155509 | 78 | 11 | 2.0 | 6.0 | 0.00 | 0.00 | 0.00 | 87 | 1012.6 |
| 20260506153640 | 78 | 346 | 0.0 | 0.0 | 0.00 | 0.00 | 0.00 | 91 | 1011.9 |
| 20260506153137 | 77 | 57 | 0.0 | 1.0 | 0.00 | 0.00 | 0.00 | 91 | 1011.9 |
| 20260506152634 | 77 | 57 | 0.0 | 1.0 | 0.00 | 0.00 | 0.00 | 91 | 1011.7 |
| 20260506152131 | 77 | 87 | 0.0 | 0.0 | 0.00 | 0.00 | 0.00 | 91 | 1011.5 |
| 20260506151630 | 77 | 87 | 0.0 | 0.0 | 0.00 | 0.00 | 0.00 | 91 | 1011.6 |
| 20260506151126 | 77 | 87 | 0.0 | 0.0 | 0.00 | 0.00 | 0.00 | 91 | 1011.4 |
| 20260506150623 | 78 | 26 | 1.0 | 1.0 | 0.00 | 0.00 | 0.00 | 90 | 1011.2 |
| 20260506150120 | 78 | 26 | 1.0 | 1.0 | 0.00 | 0.00 | 0.00 | 90 | 1011.0 |
| 20260506145617 | 78 | 232 | 0.0 | 0.0 | 0.00 | 0.00 | 0.00 | 90 | 1011.1 |
| 20260506145114 | 78 | 234 | 0.0 | 1.0 | 0.00 | 0.00 | 0.00 | 90 | 1010.7 |
| 20260506144611 | 77 | 226 | 1.0 | 2.0 | 0.00 | 0.00 | 0.00 | 90 | 1010.5 |
| 20260506144108 | 78 | 59 | 0.0 | 1.0 | 0.00 | 0.00 | 0.00 | 91 | 1010.7 |
| 20260506143606 | 78 | 59 | 0.0 | 1.0 | 0.00 | 0.00 | 0.00 | 91 | 1010.6 |
| 20260506143104 | 78 | 59 | 0.0 | 1.0 | 0.00 | 0.00 | 0.00 | 91 | 1010.3 |
| 20260506142601 | 77 | 157 | 1.0 | 2.0 | 0.00 | 0.00 | 0.00 | 91 | 1010.4 |
| 20260506142100 | 77 | 105 | 0.0 | 0.0 | 0.00 | 0.00 | 0.00 | 91 | 1010.3 |
| 20260506141557 | 77 | 105 | 0.0 | 0.0 | 0.00 | 0.00 | 0.00 | 91 | 1010.5 |
| 20260506141055 | 77 | 105 | 0.0 | 0.0 | 0.00 | 0.00 | 0.00 | 91 | 1010.5 |
| 20260506140552 | 77 | 104 | 0.0 | 0.0 | 0.00 | 0.00 | 0.00 | 91 | 1010.8 |
| 20260506140049 | 77 | 99 | 0.0 | 0.0 | 0.00 | 0.00 | 0.00 | 92 | 1010.5 |
| 20260506135546 | 77 | 99 | 0.0 | 0.0 | 0.00 | 0.00 | 0.00 | 92 | 1010.3 |
| 20260506135042 | 77 | 123 | 0.0 | 0.0 | 0.00 | 0.00 | 0.00 | 92 | 1009.9 |
| 20260506134539 | 77 | 303 | 0.0 | 1.0 | 0.00 | 0.00 | 0.00 | 92 | 1010.1 |
| 20260506134035 | 77 | 102 | 1.0 | 1.0 | 0.00 | 0.00 | 0.00 | 93 | 1009.9 |
| 20260506133532 | 77 | 46 | 0.0 | 1.0 | 0.00 | 0.00 | 0.00 | 93 | 1010.1 |
| 20260506133029 | 76 | 109 | 2.0 | 2.0 | 0.00 | 0.00 | 0.00 | 93 | 1009.8 |
| 20260506132526 | 76 | 170 | 0.0 | 1.0 | 0.00 | 0.00 | 0.00 | 93 | 1010.1 |
| 20260506132024 | 76 | 95 | 2.0 | 3.0 | 0.00 | 0.00 | 0.00 | 93 | 1009.9 |
| 20260506131520 | 76 | 199 | 1.0 | 1.0 | 0.00 | 0.00 | 0.00 | 93 | 1009.7 |
| 20260506131017 | 76 | 61 | 1.0 | 1.0 | 0.00 | 0.00 | 0.00 | 93 | 1009.7 |
| 20260506130514 | 76 | 198 | 0.0 | 0.0 | 0.00 | 0.00 | 0.00 | 93 | 1009.9 |
| 20260506130011 | 76 | 218 | 1.0 | 2.0 | 0.00 | 0.00 | 0.00 | 93 | 1009.8 |
| 20260506125510 | 76 | 217 | 1.0 | 1.0 | 0.00 | 0.00 | 0.00 | 93 | 1009.5 |
| 20260506125007 | 76 | 147 | 2.0 | 2.0 | 0.00 | 0.00 | 0.00 | 93 | 1009.5 |
| 20260506124505 | 76 | 205 | 1.0 | 1.0 | 0.00 | 0.00 | 0.00 | 93 | 1009.7 |
| 20260506124002 | 76 | 205 | 1.0 | 1.0 | 0.00 | 0.00 | 0.00 | 93 | 1009.6 |
| 20260506123500 | 76 | 197 | 0.0 | 0.0 | 0.00 | 0.00 | 0.00 | 93 | 1009.5 |
| 20260506122958 | 76 | 202 | 0.0 | 0.0 | 0.00 | 0.00 | 0.00 | 93 | 1009.6 |
| 20260506122454 | 76 | 215 | 0.0 | 1.0 | 0.00 | 0.00 | 0.00 | 93 | 1009.7 |
| 20260506121953 | 76 | 184 | 1.0 | 2.0 | 0.00 | 0.00 | 0.00 | 93 | 1009.7 |
| 20260506121449 | 76 | 213 | 0.0 | 1.0 | 0.00 | 0.00 | 0.00 | 93 | 1009.7 |
| 20260506120946 | 76 | 178 | 0.0 | 1.0 | 0.00 | 0.00 | 0.00 | 93 | 1009.5 |
| 20260506120444 | 76 | 125 | 1.0 | 2.0 | 0.00 | 0.00 | 0.00 | 93 | 1009.4 |
| 20260506115941 | 76 | 186 | 0.0 | 1.0 | 0.00 | 0.00 | 0.00 | 93 | 1009.4 |
| 20260506115439 | 76 | 181 | 0.0 | 1.0 | 0.00 | 0.00 | 0.00 | 93 | 1009.3 |
| 20260506114937 | 76 | 224 | 0.0 | 0.0 | 0.00 | 0.00 | 0.00 | 93 | 1009.3 |
| 20260506114434 | 76 | 224 | 0.0 | 1.0 | 0.00 | 0.00 | 0.00 | 93 | 1009.3 |
| 20260506113933 | 76 | 220 | 0.0 | 0.0 | 0.00 | 0.00 | 0.00 | 93 | 1009.3 |
| 20260506113430 | 76 | 219 | 0.0 | 0.0 | 0.00 | 0.00 | 0.00 | 93 | 1009.6 |
| 20260506112926 | 76 | 235 | 0.0 | 0.0 | 0.00 | 0.00 | 0.00 | 93 | 1009.3 |
| 20260506112424 | 76 | 197 | 0.0 | 1.0 | 0.00 | 0.00 | 0.00 | 93 | 1009.3 |
| 20260506111921 | 76 | 188 | 0.0 | 2.0 | 0.00 | 0.00 | 0.00 | 93 | 1009.6 |
| 20260506111419 | 76 | 217 | 0.0 | 1.0 | 0.00 | 0.00 | 0.00 | 93 | 1009.3 |
| 20260506110916 | 76 | 221 | 0.0 | 1.0 | 0.00 | 0.00 | 0.00 | 93 | 1009.4 |
| 20260506110414 | 76 | 163 | 0.0 | 2.0 | 0.00 | 0.00 | 0.00 | 93 | 1009.3 |
| 20260506105910 | 76 | 181 | 1.0 | 2.0 | 0.00 | 0.00 | 0.00 | 93 | 1009.5 |
| 20260506105406 | 76 | 205 | 0.0 | 0.0 | 0.00 | 0.00 | 0.00 | 93 | 1009.2 |
| 20260506104904 | 76 | 223 | 1.0 | 1.0 | 0.00 | 0.00 | 0.00 | 93 | 1009.2 |
| 20260506104402 | 76 | 251 | 0.0 | 2.0 | 0.00 | 0.00 | 0.00 | 93 | 1009.2 |
| 20260506103859 | 76 | 157 | 1.0 | 2.0 | 0.00 | 0.00 | 0.00 | 93 | 1009.0 |
| 20260506103356 | 76 | 157 | 1.0 | 2.0 | 0.00 | 0.00 | 0.00 | 93 | 1009.1 |
| 20260506102853 | 76 | 157 | 1.0 | 2.0 | 0.00 | 0.00 | 0.00 | 93 | 1009.0 |
| 20260506102352 | 76 | 205 | 0.0 | 0.0 | 0.00 | 0.00 | 0.00 | 93 | 1009.0 |
| 20260506101848 | 76 | 189 | 1.0 | 1.0 | 0.00 | 0.00 | 0.00 | 93 | 1008.8 |
| 20260506101344 | 76 | 189 | 1.0 | 1.0 | 0.00 | 0.00 | 0.00 | 93 | 1008.7 |
| 20260506100842 | 76 | 195 | 1.0 | 2.0 | 0.00 | 0.00 | 0.00 | 93 | 1008.5 |
| 20260506100341 | 76 | 240 | 0.0 | 1.0 | 0.00 | 0.00 | 0.00 | 93 | 1008.8 |
| 20260506095839 | 76 | 117 | 2.0 | 5.0 | 0.00 | 0.00 | 0.00 | 93 | 1008.6 |
| 20260506095335 | 76 | 239 | 0.0 | 0.0 | 0.00 | 0.00 | 0.00 | 93 | 1008.8 |
| 20260506094832 | 76 | 237 | 0.0 | 2.0 | 0.00 | 0.00 | 0.00 | 93 | 1008.6 |
| 20260506094331 | 76 | 219 | 1.0 | 1.0 | 0.00 | 0.00 | 0.00 | 93 | 1008.6 |
| 20260506093829 | 76 | 116 | 3.0 | 5.0 | 0.00 | 0.00 | 0.00 | 93 | 1008.5 |
| 20260506093325 | 76 | 127 | 3.0 | 5.0 | 0.00 | 0.00 | 0.00 | 93 | 1008.4 |
| 20260506092823 | 76 | 191 | 1.0 | 2.0 | 0.00 | 0.00 | 0.00 | 92 | 1008.4 |
| 20260506092321 | 76 | 191 | 1.0 | 2.0 | 0.00 | 0.00 | 0.00 | 92 | 1008.3 |
| 20260506091818 | 76 | 191 | 1.0 | 2.0 | 0.00 | 0.00 | 0.00 | 92 | 1008.1 |
| 20260506091316 | 76 | 191 | 1.0 | 2.0 | 0.00 | 0.00 | 0.00 | 92 | 1008.1 |
| 20260506090813 | 76 | 191 | 1.0 | 2.0 | 0.00 | 0.00 | 0.00 | 92 | 1008.3 |
| 20260506090310 | 76 | 191 | 1.0 | 2.0 | 0.00 | 0.00 | 0.00 | 92 | 1008.3 |
| 20260506085807 | 76 | 191 | 1.0 | 2.0 | 0.00 | 0.00 | 0.00 | 92 | 1008.4 |
| 20260506085305 | 76 | 191 | 1.0 | 2.0 | 0.00 | 0.00 | 0.00 | 92 | 1008.1 |
| 20260506084800 | 76 | 191 | 1.0 | 2.0 | 0.00 | 0.00 | 0.00 | 92 | 1008.1 |
| 20260506084256 | 76 | 244 | 0.0 | 1.0 | 0.00 | 0.00 | 0.00 | 92 | 1008.4 |
| 20260506083753 | 76 | 309 | 0.0 | 0.0 | 0.00 | 0.00 | 0.00 | 92 | 1008.6 |
| 20260506083251 | 76 | 309 | 0.0 | 0.0 | 0.00 | 0.00 | 0.00 | 92 | 1008.1 |
| 20260506082748 | 76 | 309 | 0.0 | 0.0 | 0.00 | 0.00 | 0.00 | 92 | 1008.3 |
| 20260506082243 | 76 | 309 | 0.0 | 0.0 | 0.00 | 0.00 | 0.00 | 92 | 1008.1 |
| 20260506081741 | 76 | 309 | 0.0 | 0.0 | 0.00 | 0.00 | 0.00 | 92 | 1008.4 |
| 20260506081238 | 76 | 309 | 0.0 | 0.0 | 0.00 | 0.00 | 0.00 | 92 | 1008.2 |
| 20260506080737 | 76 | 186 | 2.0 | 2.0 | 0.00 | 0.00 | 0.00 | 92 | 1008.4 |
| 20260506080233 | 76 | 128 | 1.0 | 1.0 | 0.00 | 0.00 | 0.00 | 92 | 1008.5 |
| 20260506073217 | 76 | 223 | 0.0 | 0.0 | 0.00 | 0.00 | 0.00 | 92 | 1008.6 |
| 20260506072713 | 76 | 209 | 0.0 | 1.0 | 0.00 | 0.00 | 0.00 | 92 | 1008.5 |
| 20260506072211 | 76 | 237 | 0.0 | 1.0 | 0.00 | 0.00 | 0.00 | 92 | 1008.7 |
| 20260506071708 | 77 | 151 | 2.0 | 2.0 | 0.00 | 0.00 | 0.00 | 91 | 1008.6 |
| 20260506071206 | 77 | 217 | 3.0 | 3.0 | 0.00 | 0.00 | 0.00 | 91 | 1008.9 |
| 20260506070703 | 77 | 131 | 0.0 | 1.0 | 0.00 | 0.00 | 0.00 | 91 | 1008.8 |
| 20260506070200 | 77 | 315 | 1.0 | 1.0 | 0.00 | 0.00 | 0.00 | 91 | 1008.9 |
| 20260506062137 | 76 | 173 | 3.0 | 3.0 | 0.00 | 0.00 | 0.00 | 91 | 1009.1 |
| 20260506061633 | 76 | 173 | 3.0 | 3.0 | 0.00 | 0.00 | 0.00 | 91 | 1009.0 |
| 20260506061131 | 76 | 173 | 3.0 | 3.0 | 0.00 | 0.00 | 0.00 | 91 | 1008.7 |
| 20260506060629 | 76 | 151 | 0.0 | 1.0 | 0.00 | 0.00 | 0.00 | 92 | 1008.7 |
| 20260506060126 | 76 | 151 | 0.0 | 1.0 | 0.00 | 0.00 | 0.00 | 92 | 1008.9 |
| 20260506051057 | 77 | 204 | 5.0 | 6.0 | 0.00 | 0.00 | 0.00 | 91 | 1009.1 |
| 20260506050555 | 77 | 204 | 5.0 | 6.0 | 0.00 | 0.00 | 0.00 | 91 | 1009.0 |
| 20260506045046 | 77 | 164 | 1.0 | 3.0 | 0.00 | 0.00 | 0.00 | 90 | 1009.0 |
| 20260506044544 | 77 | 226 | 0.0 | 0.0 | 0.00 | 0.00 | 0.00 | 90 | 1009.0 |
| 20260506044040 | 78 | 195 | 3.0 | 3.0 | 0.00 | 0.00 | 0.00 | 90 | 1009.0 |
| 20260506043537 | 78 | 185 | 3.0 | 5.0 | 0.00 | 0.00 | 0.00 | 90 | 1008.8 |
| 20260506043036 | 78 | 225 | 2.0 | 6.0 | 0.00 | 0.00 | 0.00 | 90 | 1008.8 |
| 20260506042535 | 78 | 194 | 3.0 | 3.0 | 0.00 | 0.00 | 0.00 | 89 | 1008.9 |
| 20260506042032 | 78 | 231 | 1.0 | 3.0 | 0.00 | 0.00 | 0.00 | 89 | 1008.7 |
| 20260506041531 | 78 | 195 | 3.0 | 3.0 | 0.00 | 0.00 | 0.00 | 89 | 1008.9 |
| 20260506041027 | 78 | 170 | 1.0 | 5.0 | 0.00 | 0.00 | 0.00 | 89 | 1008.7 |
| 20260506040525 | 78 | 124 | 1.0 | 2.0 | 0.00 | 0.00 | 0.00 | 89 | 1008.6 |
| 20260506040021 | 78 | 113 | 2.0 | 5.0 | 0.00 | 0.00 | 0.00 | 88 | 1008.4 |
| 20260506035518 | 78 | 171 | 1.0 | 5.0 | 0.00 | 0.00 | 0.00 | 88 | 1008.4 |
| 20260506035014 | 78 | 204 | 0.0 | 1.0 | 0.00 | 0.00 | 0.00 | 88 | 1008.5 |
| 20260506034512 | 78 | 230 | 1.0 | 2.0 | 0.00 | 0.00 | 0.00 | 88 | 1008.2 |
| 20260506034009 | 78 | 132 | 3.0 | 5.0 | 0.00 | 0.00 | 0.00 | 88 | 1008.4 |
| 20260506033506 | 78 | 137 | 2.0 | 2.0 | 0.00 | 0.00 | 0.00 | 88 | 1008.4 |
| 20260506033003 | 78 | 211 | 2.0 | 3.0 | 0.00 | 0.00 | 0.00 | 88 | 1008.2 |
| 20260506032500 | 78 | 143 | 1.0 | 5.0 | 0.00 | 0.00 | 0.00 | 87 | 1008.1 |
| 20260506031956 | 79 | 156 | 2.0 | 5.0 | 0.00 | 0.00 | 0.00 | 87 | 1008.1 |
| 20260506031454 | 79 | 185 | 2.0 | 5.0 | 0.00 | 0.00 | 0.00 | 87 | 1007.9 |
| 20260506030951 | 79 | 208 | 1.0 | 2.0 | 0.00 | 0.00 | 0.00 | 86 | 1007.9 |
| 20260506030449 | 79 | 198 | 1.0 | 3.0 | 0.00 | 0.00 | 0.00 | 86 | 1007.7 |
| 20260506025946 | 79 | 156 | 2.0 | 5.0 | 0.00 | 0.00 | 0.00 | 86 | 1007.8 |
| 20260506025443 | 79 | 196 | 0.0 | 3.0 | 0.00 | 0.00 | 0.00 | 86 | 1007.7 |
| 20260506024939 | 79 | 155 | 2.0 | 5.0 | 0.00 | 0.00 | 0.00 | 86 | 1007.8 |
| 20260506024436 | 79 | 202 | 2.0 | 3.0 | 0.00 | 0.00 | 0.00 | 86 | 1007.5 |
| 20260506023932 | 79 | 181 | 4.0 | 5.0 | 0.00 | 0.00 | 0.00 | 85 | 1007.1 |
| 20260506023429 | 80 | 213 | 3.0 | 5.0 | 0.00 | 0.00 | 0.00 | 85 | 1007.6 |
| 20260506022926 | 80 | 70 | 1.0 | 5.0 | 0.00 | 0.00 | 0.00 | 84 | 1007.1 |
| 20260506022424 | 80 | 134 | 5.0 | 8.0 | 0.00 | 0.00 | 0.00 | 83 | 1006.9 |
| 20260506021922 | 80 | 175 | 2.0 | 7.0 | 0.00 | 0.00 | 0.00 | 83 | 1006.8 |
| 20260506021418 | 80 | 190 | 1.0 | 3.0 | 0.00 | 0.00 | 0.00 | 82 | 1006.8 |
| 20260506020915 | 80 | 216 | 1.0 | 3.0 | 0.00 | 0.00 | 0.00 | 81 | 1006.9 |
| 20260506020413 | 81 | 200 | 1.0 | 3.0 | 0.00 | 0.00 | 0.00 | 81 | 1006.6 |
| 20260506015910 | 81 | 211 | 2.0 | 3.0 | 0.00 | 0.00 | 0.00 | 81 | 1006.8 |
| 20260506015408 | 81 | 190 | 2.0 | 5.0 | 0.00 | 0.00 | 0.00 | 81 | 1006.4 |
| 20260506014904 | 81 | 195 | 1.0 | 3.0 | 0.00 | 0.00 | 0.00 | 80 | 1006.5 |
| 20260506014401 | 81 | 208 | 0.0 | 2.0 | 0.00 | 0.00 | 0.00 | 80 | 1006.5 |
| 20260506013858 | 81 | 172 | 0.0 | 5.0 | 0.00 | 0.00 | 0.00 | 80 | 1006.5 |
| 20260506013356 | 81 | 182 | 3.0 | 3.0 | 0.00 | 0.00 | 0.00 | 80 | 1006.3 |
| 20260506012851 | 82 | 190 | 1.0 | 2.0 | 0.00 | 0.00 | 0.00 | 79 | 1006.4 |
| 20260506012348 | 82 | 202 | 1.0 | 3.0 | 0.00 | 0.00 | 0.00 | 79 | 1006.5 |
| 20260506011846 | 82 | 182 | 1.0 | 1.0 | 0.00 | 0.00 | 0.00 | 78 | 1006.6 |
| 20260506011343 | 82 | 191 | 1.0 | 1.0 | 0.00 | 0.00 | 0.00 | 78 | 1006.7 |
| 20260506010840 | 82 | 172 | 1.0 | 1.0 | 0.00 | 0.00 | 0.00 | 77 | 1006.6 |
| 20260506010338 | 83 | 203 | 3.0 | 3.0 | 0.00 | 0.00 | 0.00 | 76 | 1006.4 |
| 20260506005834 | 83 | 150 | 2.0 | 3.0 | 0.00 | 0.00 | 0.00 | 76 | 1006.4 |
| 20260506005331 | 83 | 218 | 0.0 | 1.0 | 0.00 | 0.00 | 0.00 | 76 | 1006.3 |
| 20260506004827 | 83 | 167 | 2.0 | 3.0 | 0.00 | 0.00 | 0.00 | 76 | 1006.3 |
| 20260506004325 | 83 | 222 | 0.0 | 2.0 | 0.00 | 0.00 | 0.00 | 76 | 1006.2 |
| 20260506003821 | 83 | 196 | 1.0 | 2.0 | 0.00 | 0.00 | 0.00 | 76 | 1006.3 |
| 20260506003317 | 84 | 170 | 0.0 | 2.0 | 0.00 | 0.00 | 0.00 | 76 | 1006.5 |
| 20260506002814 | 84 | 206 | 1.0 | 2.0 | 0.00 | 0.00 | 0.00 | 76 | 1006.1 |
| 20260506002310 | 84 | 218 | 0.0 | 2.0 | 0.00 | 0.00 | 0.00 | 76 | 1006.2 |
| 20260506001806 | 84 | 192 | 2.0 | 3.0 | 0.00 | 0.00 | 0.00 | 75 | 1006.2 |
| 20260506001303 | 84 | 209 | 1.0 | 2.0 | 0.00 | 0.00 | 0.00 | 75 | 1006.3 |
| 20260506000800 | 84 | 198 | 1.0 | 3.0 | 0.00 | 0.00 | 0.00 | 74 | 1006.2 |
| 20260506000258 | 84 | 158 | 1.0 | 3.0 | 0.00 | 0.00 | 0.00 | 74 | 1006.0 |
| 20260505235755 | 84 | 208 | 3.0 | 5.0 | 0.00 | 0.00 | 0.00 | 74 | 1006.0 |
| 20260505235252 | 84 | 150 | 2.0 | 3.0 | 0.00 | 0.00 | 0.00 | 74 | 1006.0 |
| 20260505234749 | 84 | 256 | 0.0 | 2.0 | 0.00 | 0.00 | 0.00 | 75 | 1006.1 |
| 20260505234247 | 84 | 213 | 3.0 | 5.0 | 0.00 | 0.00 | 0.00 | 74 | 1006.0 |
| 20260505233743 | 84 | 187 | 3.0 | 3.0 | 0.00 | 0.00 | 0.00 | 74 | 1006.0 |
| 20260505233241 | 84 | 104 | 2.0 | 3.0 | 0.00 | 0.00 | 0.00 | 74 | 1006.0 |
| 20260505232738 | 84 | 240 | 2.0 | 2.0 | 0.00 | 0.00 | 0.00 | 73 | 1006.1 |
| 20260505232235 | 84 | 208 | 2.0 | 2.0 | 0.00 | 0.00 | 0.00 | 73 | 1006.0 |
| 20260505231732 | 84 | 201 | 3.0 | 5.0 | 0.00 | 0.00 | 0.00 | 73 | 1006.0 |
| 20260505231231 | 84 | 156 | 3.0 | 6.0 | 0.00 | 0.00 | 0.00 | 73 | 1005.9 |
| 20260505230729 | 85 | 227 | 0.0 | 1.0 | 0.00 | 0.00 | 0.00 | 73 | 1005.7 |
| 20260505230225 | 84 | 298 | 1.0 | 1.0 | 0.00 | 0.00 | 0.00 | 73 | 1005.9 |
| 20260505225722 | 85 | 161 | 2.0 | 5.0 | 0.00 | 0.00 | 0.00 | 73 | 1005.7 |
| 20260505225219 | 85 | 241 | 0.0 | 3.0 | 0.00 | 0.00 | 0.00 | 73 | 1005.9 |
| 20260505224714 | 85 | 219 | 2.0 | 3.0 | 0.00 | 0.00 | 0.00 | 73 | 1005.8 |
| 20260505224212 | 84 | 174 | 1.0 | 5.0 | 0.00 | 0.00 | 0.00 | 72 | 1005.7 |
| 20260505223709 | 85 | 218 | 5.0 | 9.0 | 0.00 | 0.00 | 0.00 | 71 | 1005.9 |
| 20260505223205 | 85 | 148 | 0.0 | 5.0 | 0.00 | 0.00 | 0.00 | 72 | 1006.1 |
| 20260505222701 | 84 | 181 | 2.0 | 7.0 | 0.00 | 0.00 | 0.00 | 71 | 1005.9 |
| 20260505222157 | 85 | 158 | 3.0 | 6.0 | 0.00 | 0.00 | 0.00 | 72 | 1005.8 |
| 20260505221655 | 85 | 114 | 3.0 | 5.0 | 0.00 | 0.00 | 0.00 | 72 | 1005.9 |
| 20260505221151 | 85 | 203 | 3.0 | 8.0 | 0.00 | 0.00 | 0.00 | 72 | 1005.6 |
| 20260505220649 | 85 | 214 | 1.0 | 6.0 | 0.00 | 0.00 | 0.00 | 71 | 1006.0 |
| 20260505220146 | 85 | 175 | 2.0 | 2.0 | 0.00 | 0.00 | 0.00 | 71 | 1005.9 |
| 20260505215644 | 85 | 197 | 3.0 | 3.0 | 0.00 | 0.00 | 0.00 | 72 | 1006.2 |
| 20260505215142 | 84 | 122 | 3.0 | 3.0 | 0.00 | 0.00 | 0.00 | 72 | 1006.4 |
| 20260505214639 | 84 | 232 | 2.0 | 3.0 | 0.00 | 0.00 | 0.00 | 72 | 1006.5 |
| 20260505214136 | 85 | 192 | 5.0 | 6.0 | 0.00 | 0.00 | 0.00 | 71 | 1006.3 |
| 20260505213634 | 86 | 197 | 2.0 | 2.0 | 0.00 | 0.00 | 0.00 | 69 | 1006.4 |
| 20260505213130 | 87 | 199 | 2.0 | 5.0 | 0.00 | 0.00 | 0.00 | 69 | 1006.6 |
| 20260505212626 | 87 | 233 | 1.0 | 3.0 | 0.00 | 0.00 | 0.00 | 68 | 1006.4 |
| 20260505212124 | 86 | 262 | 2.0 | 2.0 | 0.00 | 0.00 | 0.00 | 69 | 1006.5 |
| 20260505211621 | 86 | 148 | 5.0 | 5.0 | 0.00 | 0.00 | 0.00 | 69 | 1006.3 |
| 20260505211118 | 86 | 200 | 2.0 | 2.0 | 0.00 | 0.00 | 0.00 | 70 | 1006.4 |
| 20260505210615 | 86 | 217 | 3.0 | 5.0 | 0.00 | 0.00 | 0.00 | 70 | 1006.5 |
| 20260505210112 | 85 | 269 | 2.0 | 2.0 | 0.00 | 0.00 | 0.00 | 71 | 1006.6 |
| 20260505205609 | 84 | 267 | 2.0 | 2.0 | 0.00 | 0.00 | 0.00 | 71 | 1006.6 |
| 20260505205107 | 84 | 267 | 2.0 | 2.0 | 0.00 | 0.00 | 0.00 | 71 | 1006.8 |